createdAt,value
2022-10-09T00:01:20.983Z,12.63
2022-10-09T00:03:51.488Z,11.73
2022-10-09T00:06:32.312Z,10.65
2022-10-09T00:09:03.809Z,11.77
2022-10-09T00:11:33.412Z,9.15
2022-10-09T00:14:01.036Z,9.18
2022-10-09T00:16:28.944Z,8.88
2022-10-09T00:18:57.235Z,12.15
2022-10-09T00:21:28.324Z,12.30
2022-10-09T00:23:57.781Z,9.07
2022-10-09T00:26:25.940Z,8.90
2022-10-09T00:28:53.480Z,10.90
2022-10-09T00:31:21.141Z,9.00
2022-10-09T00:33:48.085Z,11.85
2022-10-09T00:36:20.994Z,10.60
2022-10-09T00:38:48.703Z,9.05
2022-10-09T00:41:21.796Z,9.13
2022-10-09T00:43:53.435Z,10.70
2022-10-09T00:46:36.507Z,9.43
2022-10-09T00:49:15.121Z,14.55
2022-10-09T00:51:47.371Z,10.13
2022-10-09T00:54:19.815Z,8.38
2022-10-09T00:56:48.329Z,9.68
2022-10-09T00:59:17.532Z,10.20
2022-10-09T01:01:45.107Z,8.50
2022-10-09T01:04:13.006Z,14.32
2022-10-09T01:06:57.946Z,10.00
2022-10-09T01:09:42.087Z,10.50
2022-10-09T01:12:29.295Z,13.70
2022-10-09T01:15:19.420Z,10.80
2022-10-09T01:18:29.351Z,10.75
2022-10-09T01:21:23.800Z,9.35
2022-10-09T01:24:22.805Z,12.10
2022-10-09T01:27:19.949Z,9.77
2022-10-09T01:29:53.942Z,10.25
2022-10-09T01:32:29.473Z,10.98
2022-10-09T01:34:57.728Z,10.45
2022-10-09T01:37:27.399Z,9.27
2022-10-09T01:39:54.410Z,10.43
2022-10-09T01:42:24.546Z,14.63
2022-10-09T01:44:51.356Z,9.10
2022-10-09T01:47:20.962Z,9.52
2022-10-09T01:50:08.815Z,10.70
2022-10-09T01:52:52.308Z,13.63
2022-10-09T01:55:59.659Z,11.88
2022-10-09T01:58:39.904Z,15.73
2022-10-09T02:01:24.322Z,8.90
2022-10-09T02:03:54.316Z,13.57
2022-10-09T02:06:21.343Z,8.20
2022-10-09T02:08:52.989Z,10.32
2022-10-09T02:11:20.866Z,10.48
2022-10-09T02:13:52.995Z,11.40
2022-10-09T02:16:45.262Z,9.05
2022-10-09T02:19:40.330Z,9.40
2022-10-09T02:22:25.993Z,8.38
2022-10-09T02:24:53.590Z,8.55
2022-10-09T02:27:22.725Z,9.38
2022-10-09T02:29:50.470Z,10.75
2022-10-09T02:32:17.474Z,8.23
2022-10-09T02:34:45.042Z,7.70
2022-10-09T02:37:11.953Z,8.23
2022-10-09T02:39:38.841Z,8.77
2022-10-09T02:42:05.817Z,8.82
2022-10-09T02:44:32.623Z,6.90
2022-10-09T02:46:59.411Z,8.57
2022-10-09T02:49:26.379Z,8.88
2022-10-09T02:51:53.376Z,8.35
2022-10-09T02:54:22.733Z,6.35
2022-10-09T02:56:49.650Z,7.25
2022-10-09T02:59:16.529Z,7.15
2022-10-09T03:01:43.473Z,6.88
2022-10-09T03:04:10.415Z,8.52
2022-10-09T03:06:37.213Z,5.78
2022-10-09T03:09:04.526Z,7.30
2022-10-09T03:11:31.465Z,5.55
2022-10-09T03:13:58.309Z,7.95
2022-10-09T03:16:26.780Z,7.03
2022-10-09T03:18:54.494Z,8.50
2022-10-09T03:21:25.735Z,8.68
2022-10-09T03:23:53.468Z,12.82
2022-10-09T03:26:24.653Z,7.38
2022-10-09T03:28:53.782Z,5.57
2022-10-09T03:31:50.539Z,5.10
2022-10-09T03:34:12.660Z,7.38
2022-10-09T03:36:39.912Z,5.60
2022-10-09T03:39:06.858Z,8.27
2022-10-09T03:41:33.747Z,9.60
2022-10-09T03:44:00.764Z,5.40
2022-10-09T03:46:27.840Z,7.43
2022-10-09T03:48:54.768Z,9.35
2022-10-09T03:51:21.644Z,8.00
2022-10-09T03:53:48.448Z,5.55
2022-10-09T03:56:15.274Z,8.55
2022-10-09T03:58:42.069Z,5.55
2022-10-09T04:01:09.191Z,13.05
2022-10-09T04:03:36.295Z,13.20
2022-10-09T04:06:03.688Z,15.93
2022-10-09T04:08:30.631Z,9.18
2022-10-09T04:10:59.730Z,8.57
2022-10-09T04:13:26.740Z,8.85
2022-10-09T04:15:55.581Z,9.18
2022-10-09T04:18:23.302Z,7.78
2022-10-09T04:20:56.393Z,6.80
2022-10-09T04:23:26.574Z,7.43
2022-10-09T04:25:55.950Z,8.30
2022-10-09T04:28:23.621Z,7.80
2022-10-09T04:30:50.863Z,8.57
2022-10-09T04:33:18.066Z,7.00
2022-10-09T04:35:49.575Z,6.47
2022-10-09T04:38:16.496Z,4.90
2022-10-09T04:40:43.418Z,6.50
2022-10-09T04:43:10.377Z,7.28
2022-10-09T04:45:40.941Z,6.55
2022-10-09T04:48:07.884Z,7.70
2022-10-09T04:50:38.057Z,9.43
2022-10-09T04:53:05.037Z,4.60
2022-10-09T04:55:32.012Z,5.97
2022-10-09T04:57:59.014Z,5.22
2022-10-09T05:00:25.989Z,7.53
2022-10-09T05:02:52.810Z,7.70
2022-10-09T05:05:19.656Z,6.93
2022-10-09T05:07:46.449Z,7.28
2022-10-09T05:10:13.314Z,8.55
2022-10-09T05:12:40.184Z,11.70
2022-10-09T05:15:07.767Z,9.30
2022-10-09T05:17:35.147Z,6.32
2022-10-09T05:20:02.450Z,8.05
2022-10-09T05:22:30.017Z,7.90
2022-10-09T05:24:58.691Z,4.72
2022-10-09T05:27:29.013Z,6.63
2022-10-09T05:29:57.624Z,6.63
2022-10-09T05:32:26.923Z,8.45
2022-10-09T05:34:56.831Z,7.15
2022-10-09T05:37:27.410Z,8.45
2022-10-09T05:39:55.222Z,7.30
2022-10-09T05:42:22.020Z,13.18
2022-10-09T05:44:48.819Z,9.57
2022-10-09T05:47:17.959Z,10.18
2022-10-09T05:49:45.271Z,11.30
2022-10-09T05:52:12.252Z,8.85
2022-10-09T05:54:39.145Z,13.60
2022-10-09T05:57:06.586Z,11.02
2022-10-09T05:59:33.554Z,13.10
2022-10-09T06:02:00.808Z,9.18
2022-10-09T06:04:28.953Z,10.82
2022-10-09T06:06:56.202Z,7.82
2022-10-09T06:09:25.490Z,8.10
2022-10-09T06:11:55.102Z,9.52
2022-10-09T06:14:22.610Z,9.25
2022-10-09T06:16:50.135Z,8.73
2022-10-09T06:19:19.923Z,9.50
2022-10-09T06:21:48.016Z,7.30
2022-10-09T06:24:28.603Z,9.18
2022-10-09T06:26:59.395Z,7.13
2022-10-09T06:29:26.844Z,6.82
2022-10-09T06:31:54.093Z,6.53
2022-10-09T06:34:21.056Z,6.78
2022-10-09T06:36:47.928Z,9.02
2022-10-09T06:39:15.379Z,7.95
2022-10-09T06:41:42.307Z,10.30
2022-10-09T06:44:32.719Z,8.45
2022-10-09T06:47:00.533Z,8.50
2022-10-09T06:49:27.937Z,7.80
2022-10-09T06:51:54.761Z,9.35
2022-10-09T06:54:21.595Z,7.10
2022-10-09T06:56:48.442Z,16.10
2022-10-09T06:59:15.272Z,10.75
2022-10-09T07:01:42.254Z,7.78
2022-10-09T07:04:14.584Z,8.73
2022-10-09T07:06:44.818Z,14.27
2022-10-09T07:09:14.576Z,8.55
2022-10-09T07:11:47.027Z,18.20
2022-10-09T07:14:18.383Z,14.70
2022-10-09T07:16:48.811Z,11.70
2022-10-09T07:19:17.902Z,10.95
2022-10-09T07:21:48.462Z,15.90
2022-10-09T07:24:17.056Z,12.13
2022-10-09T07:26:46.197Z,10.43
2022-10-09T07:29:16.309Z,12.80
2022-10-09T07:31:44.028Z,15.40
2022-10-09T07:34:11.159Z,9.05
2022-10-09T07:36:38.133Z,14.85
2022-10-09T07:39:06.067Z,8.80
2022-10-09T07:41:33.907Z,7.97
2022-10-09T07:44:02.790Z,10.18
2022-10-09T07:46:34.442Z,14.90
2022-10-09T07:49:03.637Z,12.00
2022-10-09T07:51:32.191Z,9.43
2022-10-09T07:54:01.687Z,12.40
2022-10-09T07:56:35.042Z,8.32
2022-10-09T07:59:08.645Z,9.80
2022-10-09T08:01:36.563Z,9.20
2022-10-09T08:04:04.763Z,9.63
2022-10-09T08:06:32.655Z,11.80
2022-10-09T08:09:01.328Z,12.05
2022-10-09T08:11:29.569Z,12.00
2022-10-09T08:13:56.891Z,9.68
2022-10-09T08:16:25.616Z,9.30
2022-10-09T08:19:00.582Z,7.95
2022-10-09T08:21:28.552Z,14.63
2022-10-09T08:23:58.326Z,10.82
2022-10-09T08:26:27.786Z,7.97
2022-10-09T08:28:58.711Z,8.90
2022-10-09T08:31:27.698Z,11.23
2022-10-09T08:34:02.249Z,8.27
2022-10-09T08:36:29.730Z,6.97
2022-10-09T08:38:58.163Z,12.98
2022-10-09T08:41:47.726Z,8.57
2022-10-09T08:44:20.475Z,7.88
2022-10-09T08:47:05.505Z,7.90
2022-10-09T08:50:09.172Z,7.45
2022-10-09T08:53:13.773Z,9.63
2022-10-09T08:55:49.329Z,10.25
2022-10-09T08:58:21.051Z,6.20
2022-10-09T09:01:26.393Z,8.25
2022-10-09T09:04:13.833Z,5.43
2022-10-09T09:07:11.242Z,5.65
2022-10-09T09:09:52.236Z,5.88
2022-10-09T09:12:53.106Z,7.20
2022-10-09T09:15:58.393Z,5.45
2022-10-09T09:18:31.450Z,7.67
2022-10-09T09:21:16.400Z,5.90
2022-10-09T09:23:48.670Z,6.88
2022-10-09T09:26:22.372Z,7.45
2022-10-09T09:29:04.685Z,4.80
2022-10-09T09:31:37.780Z,5.53
2022-10-09T09:37:38.366Z,7.18
2022-10-09T09:43:32.411Z,6.72
2022-10-09T09:46:16.536Z,5.07
2022-10-09T09:48:48.895Z,4.32
2022-10-09T09:51:32.101Z,7.60
2022-10-09T09:55:05.561Z,4.50
2022-10-09T09:58:08.855Z,9.90
2022-10-09T10:00:36.395Z,4.22
2022-10-09T10:03:17.879Z,6.40
2022-10-09T10:05:47.971Z,6.70
2022-10-09T10:08:32.019Z,7.43
2022-10-09T10:11:05.728Z,4.22
2022-10-09T10:13:49.338Z,5.72
2022-10-09T10:16:38.556Z,4.43
2022-10-09T10:19:27.436Z,6.60
2022-10-09T10:22:25.140Z,3.15
2022-10-09T10:28:56.454Z,4.45
2022-10-09T10:32:44.274Z,2.40
2022-10-09T10:36:11.900Z,3.55
2022-10-09T10:40:20.729Z,3.45
2022-10-09T10:49:33.960Z,5.47
2022-10-09T10:53:13.826Z,4.72
2022-10-09T10:56:10.931Z,5.15
2022-10-09T10:59:40.961Z,4.10
2022-10-09T11:02:41.236Z,4.35
2022-10-09T11:05:37.306Z,3.17
2022-10-09T11:09:02.161Z,1.45
2022-10-09T11:12:00.738Z,2.92
2022-10-09T11:15:02.839Z,4.20
2022-10-09T11:18:12.682Z,4.10
2022-10-09T11:21:34.691Z,5.25
2022-10-09T11:24:38.260Z,6.00
2022-10-09T11:27:49.765Z,3.25
2022-10-09T11:30:20.826Z,4.45
2022-10-09T11:33:35.401Z,3.13
2022-10-09T11:36:45.270Z,2.05
2022-10-09T11:39:38.597Z,2.72
2022-10-09T11:42:12.679Z,2.13
2022-10-09T11:45:01.355Z,4.88
2022-10-09T12:05:47.291Z,4.47
2022-10-09T12:08:40.722Z,5.60
2022-10-09T12:11:20.956Z,3.53
2022-10-09T12:14:01.936Z,5.70
2022-10-09T12:16:48.824Z,2.58
2022-10-09T12:28:02.853Z,2.92
2022-10-09T12:38:26.216Z,2.83
2022-10-09T12:41:41.224Z,1.85
2022-10-09T12:44:31.680Z,2.78
2022-10-09T12:47:31.130Z,2.40
2022-10-09T12:50:32.568Z,5.57
2022-10-09T12:53:53.470Z,3.53
2022-10-09T12:56:33.212Z,3.38
2022-10-09T12:59:17.939Z,3.15
2022-10-09T13:02:22.088Z,5.15
2022-10-09T13:05:14.920Z,3.00
2022-10-09T13:07:46.547Z,2.75
2022-10-09T13:11:21.891Z,3.58
2022-10-09T13:14:06.263Z,3.88
2022-10-09T13:16:54.764Z,6.88
2022-10-09T13:19:38.370Z,2.90
2022-10-09T13:22:48.515Z,3.67
2022-10-09T13:25:16.244Z,2.97
2022-10-09T13:27:47.867Z,3.67
2022-10-09T13:30:15.305Z,4.22
2022-10-09T13:33:14.755Z,3.58
2022-10-09T13:35:46.563Z,2.33
2022-10-09T13:38:24.830Z,4.55
2022-10-09T13:40:52.291Z,3.97
2022-10-09T13:43:27.488Z,2.47
2022-10-09T13:46:04.470Z,2.70
2022-10-09T13:48:34.237Z,2.47
2022-10-09T13:51:09.223Z,1.50
2022-10-09T13:53:50.845Z,5.43
2022-10-09T13:56:27.877Z,1.48
2022-10-09T13:59:00.316Z,2.47
2022-10-09T14:01:48.582Z,4.93
2022-10-09T14:04:20.073Z,3.13
2022-10-09T14:06:52.857Z,2.15
2022-10-09T14:09:42.680Z,2.85
2022-10-09T14:12:36.850Z,4.25
2022-10-09T14:15:07.588Z,4.60
2022-10-09T14:17:45.222Z,5.32
2022-10-09T14:20:16.841Z,3.55
2022-10-09T14:22:51.508Z,2.88
2022-10-09T14:25:22.113Z,2.92
2022-10-09T14:27:49.265Z,2.88
2022-10-09T14:30:16.230Z,3.50
2022-10-09T14:32:55.490Z,3.20
2022-10-09T14:35:23.647Z,3.30
2022-10-09T14:37:50.716Z,3.88
2022-10-09T14:40:19.654Z,5.07
2022-10-09T14:42:52.431Z,1.88
2022-10-09T14:45:23.173Z,3.70
2022-10-09T14:47:50.777Z,3.22
2022-10-09T14:50:21.479Z,3.05
2022-10-09T14:52:49.830Z,4.43
2022-10-09T14:55:21.117Z,2.92
2022-10-09T14:57:48.967Z,2.22
2022-10-09T15:00:16.510Z,1.95
2022-10-09T15:02:44.875Z,2.58
2022-10-09T15:05:12.227Z,2.08
2022-10-09T15:07:48.368Z,1.48
2022-10-09T15:10:18.033Z,3.90
2022-10-09T15:12:45.345Z,4.28
2022-10-09T15:15:16.051Z,1.38
2022-10-09T15:17:45.683Z,1.95
2022-10-09T15:20:14.097Z,5.20
2022-10-09T15:22:42.736Z,3.38
2022-10-09T15:25:15.731Z,3.83
2022-10-09T15:27:43.267Z,3.40
2022-10-09T15:30:12.786Z,2.17
2022-10-09T15:32:43.258Z,3.38
2022-10-09T15:35:13.055Z,4.72
2022-10-09T15:37:46.463Z,1.23
2022-10-09T15:40:18.981Z,3.30
2022-10-09T15:42:47.378Z,2.25
2022-10-09T15:45:16.848Z,4.72
2022-10-09T15:47:51.217Z,1.58
2022-10-09T15:50:23.299Z,1.73
2022-10-09T15:52:51.169Z,4.40
2022-10-09T15:55:18.467Z,2.35
2022-10-09T15:57:45.596Z,1.30
2022-10-09T16:00:13.242Z,2.75
2022-10-09T16:02:42.288Z,1.95
2022-10-09T16:05:10.327Z,4.13
2022-10-09T16:07:37.190Z,1.40
2022-10-09T16:10:04.604Z,1.40
2022-10-09T16:12:33.078Z,2.85
2022-10-09T16:15:00.409Z,1.73
2022-10-09T16:17:29.161Z,2.50
2022-10-09T16:19:59.856Z,2.17
2022-10-09T16:22:26.930Z,5.78
2022-10-09T16:25:16.594Z,2.58
2022-10-09T16:27:43.453Z,3.00
2022-10-09T16:31:12.674Z,2.95
2022-10-09T16:37:01.840Z,1.60
2022-10-09T16:39:28.722Z,3.17
2022-10-09T16:41:57.549Z,4.90
2022-10-09T16:44:24.422Z,2.10
2022-10-09T16:46:51.770Z,2.83
2022-10-09T16:49:21.415Z,1.73
2022-10-09T16:51:51.078Z,3.17
2022-10-09T16:54:18.025Z,2.65
2022-10-09T16:56:44.977Z,2.85
2022-10-09T16:59:33.120Z,3.53
2022-10-09T17:02:03.551Z,6.00
2022-10-09T17:04:30.775Z,9.77
2022-10-09T17:06:57.646Z,6.40
2022-10-09T17:09:24.536Z,3.13
2022-10-09T17:11:51.414Z,5.07
2022-10-09T17:14:42.474Z,3.92
2022-10-09T17:17:12.513Z,3.97
2022-10-09T17:19:39.979Z,4.00
2022-10-09T17:22:06.969Z,3.58
2022-10-09T17:24:34.250Z,4.00
2022-10-09T17:27:44.778Z,6.80
2022-10-09T17:30:17.228Z,4.65
2022-10-09T17:32:45.717Z,4.13
2022-10-09T17:35:12.948Z,4.53
2022-10-09T17:37:39.986Z,4.60
2022-10-09T17:40:07.464Z,5.47
2022-10-09T17:42:36.011Z,4.80
2022-10-09T17:45:03.051Z,5.50
2022-10-09T17:47:30.226Z,5.18
2022-10-09T17:49:57.276Z,3.92
2022-10-09T17:52:24.247Z,6.32
2022-10-09T17:54:51.332Z,6.15
2022-10-09T17:57:18.294Z,6.00
2022-10-09T17:59:45.439Z,9.57
2022-10-09T18:02:13.690Z,13.68
2022-10-09T18:04:40.542Z,9.88
2022-10-09T18:07:07.389Z,8.60
2022-10-09T18:09:34.163Z,20.25
2022-10-09T18:12:00.999Z,20.08
2022-10-09T18:14:27.884Z,21.05
2022-10-09T18:17:21.008Z,14.52
2022-10-09T18:19:49.651Z,11.38
2022-10-09T18:22:16.624Z,12.52
2022-10-09T18:24:43.745Z,11.93
2022-10-09T18:27:10.742Z,12.18
2022-10-09T18:35:38.478Z,9.45
2022-10-09T18:38:29.792Z,10.93
2022-10-09T18:44:01.869Z,10.55
2022-10-09T18:46:39.015Z,8.60
2022-10-09T18:52:20.751Z,10.57
2022-10-09T18:55:01.748Z,7.70
2022-10-09T18:57:40.227Z,9.30
2022-10-09T19:00:21.847Z,8.43
2022-10-09T19:02:48.707Z,9.65
2022-10-09T19:05:15.662Z,6.68
2022-10-09T19:08:00.616Z,7.80
2022-10-09T19:10:30.231Z,7.05
2022-10-09T19:12:57.258Z,9.02
2022-10-09T19:15:24.167Z,7.82
2022-10-09T19:17:51.390Z,6.13
2022-10-09T19:20:18.554Z,7.93
2022-10-09T19:22:45.461Z,7.00
2022-10-09T19:25:12.485Z,7.13
2022-10-09T19:28:22.537Z,8.10
2022-10-09T19:30:54.419Z,11.40
2022-10-09T19:33:21.771Z,10.65
2022-10-09T19:39:05.373Z,8.18
2022-10-09T19:41:32.276Z,7.65
2022-10-09T19:44:00.474Z,8.85
2022-10-09T19:46:27.998Z,9.13
2022-10-09T19:48:54.985Z,8.25
2022-10-09T19:51:26.403Z,6.95
2022-10-09T19:53:54.721Z,8.48
2022-10-09T19:56:26.440Z,5.22
2022-10-09T19:58:56.459Z,7.75
2022-10-09T20:01:27.283Z,7.03
2022-10-09T20:04:01.536Z,6.53
2022-10-09T20:06:37.008Z,5.80
2022-10-09T20:09:07.326Z,6.63
2022-10-09T20:11:34.781Z,5.82
2022-10-09T20:14:03.166Z,5.03
2022-10-09T20:16:32.139Z,6.88
2022-10-09T20:19:01.401Z,4.63
2022-10-09T20:21:31.642Z,6.68
2022-10-09T20:24:05.082Z,7.47
2022-10-09T20:26:42.291Z,6.15
2022-10-09T20:29:13.257Z,5.95
2022-10-09T20:31:41.473Z,7.15
2022-10-09T20:34:08.549Z,5.15
2022-10-09T20:36:38.951Z,5.95
2022-10-09T20:39:13.986Z,8.32
2022-10-09T20:44:11.191Z,5.15
2022-10-09T20:46:39.903Z,6.22
2022-10-09T20:49:13.024Z,8.40
2022-10-09T20:51:40.914Z,6.65
2022-10-09T20:54:13.810Z,6.82
2022-10-09T20:57:30.050Z,8.40
2022-10-09T21:00:11.267Z,5.47
2022-10-09T21:03:34.145Z,6.25
2022-10-09T21:10:21.753Z,5.45
2022-10-09T21:12:49.860Z,6.10
2022-10-09T21:15:17.069Z,5.38
2022-10-09T21:17:44.749Z,4.25
2022-10-09T21:20:12.089Z,6.80
2022-10-09T21:22:39.134Z,8.70
2022-10-09T21:25:10.934Z,4.20
2022-10-09T21:27:38.319Z,7.63
2022-10-09T21:30:06.153Z,7.07
2022-10-09T21:32:33.441Z,5.82
2022-10-09T21:35:00.579Z,6.22
2022-10-09T21:37:27.743Z,7.68
2022-10-09T21:39:54.942Z,7.85
2022-10-09T21:42:22.147Z,7.95
2022-10-09T21:44:49.320Z,5.75
2022-10-09T21:47:19.674Z,5.15
2022-10-09T21:49:46.930Z,5.95
2022-10-09T21:52:14.280Z,7.72
2022-10-09T21:54:41.370Z,6.97
2022-10-09T21:57:08.479Z,8.93
2022-10-09T21:59:35.611Z,4.70
2022-10-09T22:02:03.287Z,6.57
2022-10-09T22:04:30.298Z,9.18
2022-10-09T22:06:57.380Z,8.15
2022-10-09T22:09:24.713Z,7.03
2022-10-09T22:11:51.992Z,5.65
2022-10-09T22:14:19.070Z,4.88
2022-10-09T22:16:47.277Z,6.78
2022-10-09T22:19:14.675Z,7.32
2022-10-09T22:21:42.259Z,5.50
2022-10-09T22:24:09.476Z,5.13
2022-10-09T22:26:36.691Z,6.43
2022-10-09T22:29:08.380Z,4.97
2022-10-09T22:31:35.981Z,4.53
2022-10-09T22:34:03.820Z,8.25
2022-10-09T22:36:33.653Z,5.07
2022-10-09T22:39:05.478Z,7.25
2022-10-09T22:41:34.276Z,4.90
2022-10-09T22:44:04.808Z,7.90
2022-10-09T22:46:36.728Z,4.95
2022-10-09T22:49:07.451Z,5.10
2022-10-09T22:51:35.068Z,7.43
2022-10-09T22:54:02.341Z,5.55
2022-10-09T22:56:39.695Z,6.55
2022-10-09T22:59:09.428Z,4.95
2022-10-09T23:01:42.506Z,7.22
2022-10-09T23:04:13.898Z,5.20
2022-10-09T23:06:42.829Z,6.57
2022-10-09T23:09:14.234Z,5.63
2022-10-09T23:11:42.382Z,5.00
2022-10-09T23:14:12.690Z,6.30
2022-10-09T23:16:47.187Z,7.63
2022-10-09T23:19:15.064Z,6.63
2022-10-09T23:21:45.404Z,5.50
2022-10-09T23:24:18.156Z,5.25
2022-10-09T23:26:51.997Z,4.93
2022-10-09T23:29:20.758Z,5.18
2022-10-09T23:31:52.451Z,7.10
2022-10-09T23:34:19.706Z,6.03
2022-10-09T23:36:46.932Z,5.57
2022-10-09T23:39:14.281Z,5.78
2022-10-09T23:41:41.565Z,5.80
2022-10-09T23:44:08.896Z,4.47
2022-10-09T23:46:37.725Z,6.03
2022-10-09T23:49:05.933Z,7.05
2022-10-09T23:51:33.462Z,8.25
2022-10-09T23:54:01.164Z,5.80
2022-10-09T23:56:33.197Z,4.95
2022-10-09T23:59:02.843Z,5.03
